M I D A S
Marine Information and Data Acquisition System
Tripno 1714 of the Zeeleeuw from 2009-06-23 06:43:27 to 2009-06-23 14:36:06
Back to CruiseResearch ActivitiesStationsMapUnderway DataData graphs

EquipmentUnitsComment
TimeDGPSUTC
LatitudeDGPSDM.mWGS84
LongitudeDGPSDM.mWGS84
HeadingGyrodeg 
SOGDGPSknotsSpeed over ground
COGDGPSdegCourse over ground
DepthEcho soundermeters200 kHz
Missing or incorrect values are displayed as -999
Navigation data collected by the RV Zeeleeuw from 2009-06-23 06:50:02 to 2009-06-23 14:40:53
Time Latitude Longitude Heading SOG COG Depth
2009-06-23 06:51:07 51°13.662 2°55.961 124.8 -999 166 -999
2009-06-23 06:52:07 51°13.662 2°55.956 123.5 0.3 287 4.5
2009-06-23 06:53:07 51°13.669 2°55.941 119.1 1.2 296 -999
2009-06-23 06:54:07 51°13.688 2°55.888 117.7 3.1 300 -999
2009-06-23 06:55:07 51°13.7 2°55.802 93.7 3.3 276 -999
2009-06-23 06:56:06 51°13.7 2°55.739 79.3 1.1 271 11
2009-06-23 06:57:04 51°13.709 2°55.745 32 0.2 353 11.6
2009-06-23 06:58:03 51°13.713 2°55.739 359.7 1.2 349 10.7
2009-06-23 06:59:03 51°13.752 2°55.706 332.3 4.4 329 9
2009-06-23 07:00:03 51°13.833 2°55.635 335 6.2 333 8.5
2009-06-23 07:01:03 51°13.931 2°55.558 336.9 6.7 334 9.2
2009-06-23 07:02:03 51°14.031 2°55.479 335.9 6.5 335 9
2009-06-23 07:03:03 51°14.121 2°55.411 338.5 5.9 336 9
2009-06-23 07:04:04 51°14.214 2°55.329 328.2 6.5 324 9.1
2009-06-23 07:05:03 51°14.294 2°55.207 313.2 7.6 310 9.1
2009-06-23 07:06:03 51°14.386 2°55.022 315.8 10.1 313 8.7
2009-06-23 07:07:03 51°14.516 2°54.825 330.6 11.2 323 8.8
2009-06-23 07:08:03 51°14.675 2°54.667 340.4 11.1 333 8.4
2009-06-23 07:09:04 51°14.846 2°54.533 343 11.2 335 8.2
2009-06-23 07:10:04 51°15.011 2°54.403 334.9 11.2 327 9
2009-06-23 07:11:03 51°15.151 2°54.21 322.6 11.5 313 9.1
2009-06-23 07:12:03 51°15.266 2°53.965 310.5 11.7 301 5.7
2009-06-23 07:13:04 51°15.355 2°53.674 303.6 12 297 8.6
2009-06-23 07:14:04 51°15.447 2°53.389 304.2 12.2 296 9.2
2009-06-23 07:15:03 51°15.541 2°53.109 308.8 12.2 300 9.8
2009-06-23 07:16:04 51°15.661 2°52.854 331.1 11.2 324 10.2
2009-06-23 07:17:03 51°15.827 2°52.739 349.8 11.1 339 10.5
2009-06-23 07:18:04 51°16.005 2°52.66 1.6 10.7 353 10.8
2009-06-23 07:19:04 51°16.178 2°52.641 7.6 10.3 359 10.9
2009-06-23 07:20:03 51°16.35 2°52.617 3.3 10.6 353 10.9
2009-06-23 07:21:03 51°16.527 2°52.596 2.4 10.8 354 10.3
2009-06-23 07:22:03 51°16.706 2°52.562 357.7 10.7 352 9
2009-06-23 07:23:03 51°16.88 2°52.521 357.7 10.5 351 8.8
2009-06-23 07:24:03 51°17.052 2°52.48 358.8 10.5 353 8.6
2009-06-23 07:25:03 51°17.225 2°52.441 358.8 10.5 350 8.9
2009-06-23 07:26:03 51°17.394 2°52.361 348.6 10.6 340 9.3
2009-06-23 07:27:03 51°17.559 2°52.261 348.5 10.7 339 9.3
2009-06-23 07:28:03 51°17.727 2°52.16 348.5 10.8 339 9.4
2009-06-23 07:29:04 51°17.898 2°52.063 349.9 10.7 342 9.4
2009-06-23 07:30:03 51°18.064 2°51.972 349.5 10.8 340 9.4
2009-06-23 07:31:03 51°18.233 2°51.872 348.4 10.8 339 10
2009-06-23 07:32:03 51°18.403 2°51.772 349 10.9 340 10.9
2009-06-23 07:33:03 51°18.57 2°51.661 345.6 11 336 11.9
2009-06-23 07:34:03 51°18.738 2°51.539 345.6 11 335 12.8
2009-06-23 07:35:03 51°18.903 2°51.408 343 11.1 332 13.2
2009-06-23 07:36:03 51°19.067 2°51.269 344 11.1 333 13.6
2009-06-23 07:37:03 51°19.23 2°51.134 343.8 11.2 332 14.1
2009-06-23 07:38:03 51°19.395 2°50.999 345.4 11 335 13.5
2009-06-23 07:39:03 51°19.559 2°50.869 344.9 10.9 334 12.2
2009-06-23 07:40:03 51°19.723 2°50.741 344.2 11 334 11.3
2009-06-23 07:41:03 51°19.889 2°50.614 344.9 11.1 335 11.9
2009-06-23 07:42:03 51°20.057 2°50.485 343.7 11.2 333 14.2
2009-06-23 07:43:03 51°20.223 2°50.346 344.2 11.4 333 15.2
2009-06-23 07:44:03 51°20.391 2°50.207 346.2 11.4 333 17.9
2009-06-23 07:45:03 51°20.562 2°50.074 347.2 11.4 335 20.1
2009-06-23 07:46:03 51°20.734 2°49.942 347 11.6 334 21.8
2009-06-23 07:47:04 51°20.911 2°49.805 347.1 11.6 334 22.1
2009-06-23 07:48:03 51°21.082 2°49.673 347.7 11.6 334 21.8
2009-06-23 07:49:03 51°21.257 2°49.538 347.3 11.6 334 21.2
2009-06-23 07:50:03 51°21.432 2°49.409 348.2 11.5 335 20.7
2009-06-23 07:51:03 51°21.608 2°49.28 348.8 11.7 336 21.3
2009-06-23 07:52:03 51°21.784 2°49.149 348 11.7 336 22.2
2009-06-23 07:53:03 51°21.962 2°49.021 347.1 11.8 335 22.4
2009-06-23 07:54:03 51°22.142 2°48.894 348.5 11.8 336 22.7
2009-06-23 07:55:03 51°22.318 2°48.776 348.4 11.1 339 21.2
2009-06-23 07:56:03 51°22.487 2°48.665 346.4 10.8 338 18.6
2009-06-23 07:57:03 51°22.653 2°48.56 348.6 10.7 339 13.6
2009-06-23 07:58:03 51°22.818 2°48.449 347.9 10.8 336 19
2009-06-23 07:59:03 51°22.98 2°48.325 346.3 10.8 335 18.6
2009-06-23 08:00:03 51°23.144 2°48.202 347.5 10.9 335 19.9
2009-06-23 08:01:03 51°23.31 2°48.078 348.5 11 336 20.2
2009-06-23 08:02:03 51°23.477 2°47.949 346.4 11.2 333 18.7
2009-06-23 08:03:03 51°23.644 2°47.818 346.8 11.2 334 20.4
2009-06-23 08:04:03 51°23.812 2°47.69 347.3 11.2 334 20.1
2009-06-23 08:05:03 51°23.982 2°47.565 347.1 11.2 335 22.8
2009-06-23 08:06:03 51°24.151 2°47.437 346.3 11.3 334 24.7
2009-06-23 08:07:03 51°24.32 2°47.306 347.1 11.3 334 25.9
2009-06-23 08:08:03 51°24.489 2°47.178 349 11.3 336 29.4
2009-06-23 08:09:03 51°24.662 2°47.049 347.9 11.6 334 29.6
2009-06-23 08:10:03 51°24.835 2°46.914 348.5 11.5 335 26.6
2009-06-23 08:11:03 51°25.009 2°46.786 349 11.4 336 23.9
2009-06-23 08:12:03 51°25.181 2°46.659 348.1 11.3 336 24.4
2009-06-23 08:13:03 51°25.352 2°46.53 347.9 11.3 336 24.4
2009-06-23 08:14:03 51°25.522 2°46.405 348 11.1 337 23.9
2009-06-23 08:15:03 51°25.689 2°46.283 346.9 11.1 335 22.6
2009-06-23 08:16:03 51°25.857 2°46.158 347.2 11.1 334 21.5
2009-06-23 08:17:03 51°26.022 2°46.03 345.4 11.1 334 23.9
2009-06-23 08:18:03 51°26.189 2°45.903 346.6 11.2 335 25.6
2009-06-23 08:19:03 51°26.358 2°45.777 346.6 11.1 335 26.1
2009-06-23 08:20:03 51°26.527 2°45.649 346.7 11.4 334 28
2009-06-23 08:21:03 51°26.698 2°45.52 347.8 11.4 335 28.1
2009-06-23 08:22:03 51°26.871 2°45.394 347 11.5 334 28.5
2009-06-23 08:23:03 51°27.043 2°45.263 347.5 11.4 335 27.9
2009-06-23 08:24:03 51°27.214 2°45.127 347.1 11.4 334 27.7
2009-06-23 08:25:03 51°27.385 2°44.998 347.4 11.3 335 26.4
2009-06-23 08:26:03 51°27.556 2°44.865 347.2 11.4 335 26.4
2009-06-23 08:27:03 51°27.729 2°44.744 348 11.4 336 25.5
2009-06-23 08:28:03 51°27.902 2°44.629 348.4 11.2 338 26.2
2009-06-23 08:29:04 51°28.076 2°44.513 348 11.1 338 27.6
2009-06-23 08:30:03 51°28.243 2°44.4 346.5 11 337 25.4
2009-06-23 08:31:03 51°28.413 2°44.289 345.9 11.1 338 29.9
2009-06-23 08:32:03 51°28.584 2°44.18 346.4 11 336 26.5
2009-06-23 08:33:04 51°28.755 2°44.068 346.3 10.9 338 28.9
2009-06-23 08:34:03 51°28.923 2°43.964 347.3 11 338 29.7
2009-06-23 08:35:04 51°29.095 2°43.857 347.1 10.9 338 28.2
2009-06-23 08:36:03 51°29.26 2°43.749 348.4 10.7 339 30
2009-06-23 08:37:03 51°29.427 2°43.64 350.1 10.8 338 30.3
2009-06-23 08:38:03 51°29.594 2°43.536 357.2 10.5 345 30.2
2009-06-23 08:39:03 51°29.763 2°43.525 10.9 10.1 2 30
2009-06-23 08:40:03 51°29.92 2°43.591 25 9.9 17 30.6
2009-06-23 08:41:03 51°30.08 2°43.662 21.4 10 13 31.3
2009-06-23 08:42:03 51°30.241 2°43.72 21.6 10 13 31.6
2009-06-23 08:43:03 51°30.405 2°43.774 20.4 10 11 31.1
2009-06-23 08:44:03 51°30.567 2°43.828 20.8 10 13 33.1
2009-06-23 08:45:03 51°30.73 2°43.877 18.3 10 8 31.8
2009-06-23 08:46:03 51°30.895 2°43.926 18.8 10.1 10 32.8
2009-06-23 08:47:03 51°31.058 2°43.977 23.1 9.9 16 30.5
2009-06-23 08:48:03 51°31.219 2°44.04 23.1 10 14 32.9
2009-06-23 08:49:03 51°31.38 2°44.106 23.9 10 15 32.6
2009-06-23 08:50:03 51°31.541 2°44.17 23.2 10 15 34
2009-06-23 08:51:03 51°31.701 2°44.234 22.6 10 14 31.9
2009-06-23 08:52:04 51°31.865 2°44.304 22.9 10 14 33.9
2009-06-23 08:53:03 51°32.022 2°44.37 22.5 10 16 32.8
2009-06-23 08:54:03 51°32.183 2°44.445 22.4 10 16 32.7
2009-06-23 08:55:03 51°32.34 2°44.529 24.6 9.8 18 31.4
2009-06-23 08:56:03 51°32.497 2°44.612 23.8 10 19 31.6
2009-06-23 08:57:03 51°32.652 2°44.697 25.4 9.9 20 31.3
2009-06-23 08:58:03 51°32.809 2°44.78 23.7 9.9 17 29.5
2009-06-23 08:59:03 51°32.965 2°44.865 23.5 10 18 29.7
2009-06-23 09:00:03 51°33.12 2°44.951 23.6 9.9 17 28.8
2009-06-23 09:01:03 51°33.276 2°45.031 23.8 9.8 16 29.4
2009-06-23 09:02:03 51°33.43 2°45.118 26.1 9.8 21 29.2
2009-06-23 09:03:03 51°33.581 2°45.214 26.9 9.7 20 28.7
2009-06-23 09:04:03 51°33.731 2°45.307 26.5 9.6 21 29.2
2009-06-23 09:05:03 51°33.881 2°45.402 26.2 9.7 21 29.1
2009-06-23 09:06:03 51°34.031 2°45.491 25.9 9.5 19 28.9
2009-06-23 09:07:03 51°34.18 2°45.577 26.5 9.5 19 29.4
2009-06-23 09:08:03 51°34.33 2°45.668 27.3 9.6 22 28.9
2009-06-23 09:09:03 51°34.48 2°45.754 25.5 9.6 20 30.4
2009-06-23 09:10:04 51°34.633 2°45.844 25.5 9.6 18 28.1
2009-06-23 09:11:03 51°34.781 2°45.93 26.2 9.6 20 27.5
2009-06-23 09:12:04 51°34.933 2°46.02 25.6 9.6 20 27.4
2009-06-23 09:13:03 51°35.081 2°46.103 25.8 9.6 18 26.6
2009-06-23 09:14:03 51°35.23 2°46.192 27.1 9.5 20 26.6
2009-06-23 09:15:04 51°35.383 2°46.278 25.8 9.6 19 23.8
2009-06-23 09:16:03 51°35.532 2°46.36 26.8 9.5 21 22.7
2009-06-23 09:17:03 51°35.682 2°46.446 26.9 9.6 21 22.6
2009-06-23 09:18:03 51°35.834 2°46.532 25.5 9.6 17 21.9
2009-06-23 09:19:03 51°35.987 2°46.61 25.6 9.6 18 17.4
2009-06-23 09:20:04 51°36.141 2°46.695 26.9 9.6 19 15.4
2009-06-23 09:21:03 51°36.291 2°46.779 27.7 9.8 21 19
2009-06-23 09:22:03 51°36.444 2°46.869 27.2 9.8 22 18.1
2009-06-23 09:23:03 51°36.597 2°46.955 26.7 9.8 21 18.6
2009-06-23 09:24:03 51°36.75 2°47.043 26.2 9.9 21 18
2009-06-23 09:25:03 51°36.905 2°47.135 25.4 9.9 19 16.9
2009-06-23 09:26:04 51°37.062 2°47.23 26.9 10 20 14.7
2009-06-23 09:27:03 51°37.215 2°47.313 25.7 9.8 19 17.5
2009-06-23 09:28:04 51°37.372 2°47.406 26.6 10 20 20.5
2009-06-23 09:29:03 51°37.525 2°47.498 26.3 10 21 19.1
2009-06-23 09:30:04 51°37.684 2°47.596 27.2 10.1 22 19.6
2009-06-23 09:31:03 51°37.838 2°47.695 27.1 10.1 21 19.8
2009-06-23 09:32:03 51°37.993 2°47.798 25.8 10.1 22 20.2
2009-06-23 09:33:04 51°38.152 2°47.9 26.7 10.2 24 22.8
2009-06-23 09:34:03 51°38.306 2°47.998 25.3 10.1 22 19.9
2009-06-23 09:35:03 51°38.461 2°48.096 25.6 10 21 23
2009-06-23 09:36:03 51°38.616 2°48.192 26.4 10 22 17.8
2009-06-23 09:37:04 51°38.772 2°48.293 26.9 10 23 24.3
2009-06-23 09:38:03 51°38.922 2°48.395 27.2 9.9 24 24.6
2009-06-23 09:39:03 51°39.078 2°48.489 23 10 19 21.1
2009-06-23 09:40:03 51°39.238 2°48.569 20.2 10.1 16 22.7
2009-06-23 09:41:03 51°39.4 2°48.632 19.4 9.9 14 21
2009-06-23 09:42:04 51°39.564 2°48.7 18.4 10.1 14 27.2
2009-06-23 09:43:03 51°39.725 2°48.761 13.3 10.2 8 27.4
2009-06-23 09:44:04 51°39.897 2°48.777 8.6 10.2 1 26.6
2009-06-23 09:45:03 51°40.064 2°48.786 8.2 10.2 4 25.4
2009-06-23 09:46:04 51°40.238 2°48.8 8.9 10.3 4 24.5
2009-06-23 09:47:03 51°40.406 2°48.8 1.1 10.4 353 23.2
2009-06-23 09:48:03 51°40.578 2°48.756 356.8 10.4 351 23.2
2009-06-23 09:49:03 51°40.747 2°48.684 346.9 10.6 338 22.2
2009-06-23 09:50:03 51°40.877 2°48.483 313 11.4 303 26.4
2009-06-23 09:51:04 51°40.958 2°48.199 292.8 11.8 282 26.6
2009-06-23 09:52:04 51°40.948 2°47.875 262.9 12.5 254 28
2009-06-23 09:53:04 51°40.808 2°47.641 212 12.7 210 29.8
2009-06-23 09:54:04 51°40.609 2°47.512 197.5 13 200 26.1
2009-06-23 09:55:04 51°40.404 2°47.407 196.1 12.9 199 28.6
2009-06-23 09:56:03 51°40.203 2°47.295 197.8 12.9 198 27.2
2009-06-23 09:57:04 51°39.994 2°47.18 198.8 13 198 27.5
2009-06-23 09:58:04 51°39.789 2°47.069 196.8 13 198 28
2009-06-23 09:59:04 51°39.586 2°46.957 197.2 13 199 27.9
2009-06-23 10:00:04 51°39.382 2°46.846 198.4 12.9 201 29.3
2009-06-23 10:01:04 51°39.18 2°46.737 197.9 12.7 200 29.9
2009-06-23 10:02:04 51°38.977 2°46.629 197.5 12.8 198 30.5
2009-06-23 10:03:04 51°38.776 2°46.506 202.1 12.8 203 31.9
2009-06-23 10:04:04 51°38.576 2°46.382 200.8 13 200 32.2
2009-06-23 10:05:04 51°38.375 2°46.26 201.4 12.8 201 33.6
2009-06-23 10:06:04 51°38.172 2°46.141 200.6 13.1 201 32.8
2009-06-23 10:07:04 51°37.973 2°46.01 202.5 12.9 203 32.8
2009-06-23 10:08:04 51°37.775 2°45.874 204.3 12.9 204 32.9
2009-06-23 10:09:04 51°37.579 2°45.733 204.2 12.9 204 33
2009-06-23 10:10:04 51°37.382 2°45.591 206.4 13 207 33
2009-06-23 10:11:04 51°37.188 2°45.443 206.5 12.9 207 34.8
2009-06-23 10:12:04 51°36.994 2°45.297 205.8 12.9 205 35.5
2009-06-23 10:13:04 51°36.798 2°45.148 205.5 12.9 208 36.5
2009-06-23 10:14:04 51°36.602 2°44.999 204.8 13 205 36.6
2009-06-23 10:15:04 51°36.407 2°44.851 205 13 206 36.8
2009-06-23 10:16:04 51°36.213 2°44.701 206.2 12.9 206 38.1
2009-06-23 10:17:04 51°36.02 2°44.548 204.3 12.9 206 37.2
2009-06-23 10:18:04 51°35.826 2°44.397 206.1 12.9 204 36.5
2009-06-23 10:19:04 51°35.633 2°44.245 204.9 12.8 206 36.7
2009-06-23 10:20:04 51°35.44 2°44.097 204.6 12.8 205 36.3
2009-06-23 10:21:04 51°35.247 2°43.947 206 13 204 37.7
2009-06-23 10:22:04 51°35.057 2°43.788 206.2 13 208 38.3
2009-06-23 10:23:04 51°34.867 2°43.626 205.7 12.9 209 38.5
2009-06-23 10:24:04 51°34.676 2°43.471 203.4 12.8 206 38.5
2009-06-23 10:25:04 51°34.486 2°43.312 204.7 12.9 207 37.7
2009-06-23 10:26:04 51°34.295 2°43.154 205.5 12.9 206 38.3
2009-06-23 10:27:04 51°34.103 2°43.002 204 12.8 208 39.1
2009-06-23 10:28:04 51°33.911 2°42.849 204.8 12.9 207 35.7
2009-06-23 10:29:04 51°33.719 2°42.692 206.1 13.1 207 36.1
2009-06-23 10:30:04 51°33.528 2°42.533 205.8 12.9 206 36.8
2009-06-23 10:31:04 51°33.337 2°42.372 206.3 13 209 32.3
2009-06-23 10:32:04 51°33.144 2°42.216 204.8 12.9 206 35.1
2009-06-23 10:33:04 51°32.966 2°42.025 218.7 12.9 217 34
2009-06-23 10:34:04 51°32.852 2°41.747 254.9 12.4 256 36.9
2009-06-23 10:35:04 51°32.884 2°41.444 304.2 11.5 299 36.1
2009-06-23 10:36:04 51°33.031 2°41.276 344.8 10.9 341 36.5
2009-06-23 10:37:04 51°33.208 2°41.228 359.7 10.8 354 37.7
2009-06-23 10:38:03 51°33.384 2°41.193 357.1 10.9 351 39.5
2009-06-23 10:39:04 51°33.567 2°41.132 352.4 11.1 347 40.6
2009-06-23 10:40:04 51°33.74 2°41.022 339.8 11.2 331 41.1
2009-06-23 10:41:04 51°33.901 2°40.861 333.4 11.5 327 39.5
2009-06-23 10:42:04 51°34.066 2°40.714 344.8 11 341 39.2
2009-06-23 10:43:03 51°34.24 2°40.698 12.4 10.6 10 39.3
2009-06-23 10:44:04 51°34.411 2°40.786 23.6 10.7 19 38.7
2009-06-23 10:45:04 51°34.574 2°40.898 27.4 10.6 25 39.3
2009-06-23 10:46:04 51°34.737 2°41.015 26.6 10.7 24 39.8
2009-06-23 10:47:04 51°34.898 2°41.133 27 10.7 24 38
2009-06-23 10:48:04 51°35.061 2°41.249 24.2 10.7 21 38.9
2009-06-23 10:49:03 51°35.222 2°41.36 24.7 10.8 23 39.2
2009-06-23 10:50:04 51°35.389 2°41.478 25.4 10.8 24 39.7
2009-06-23 10:51:03 51°35.55 2°41.594 25.1 10.9 24 39.8
2009-06-23 10:52:04 51°35.719 2°41.711 23.2 10.8 23 40.2
2009-06-23 10:53:04 51°35.883 2°41.831 25.1 10.9 24 40.3
2009-06-23 10:54:04 51°36.048 2°41.953 24.4 10.9 25 39.1
2009-06-23 10:55:04 51°36.214 2°42.071 23.6 10.9 24 38.3
2009-06-23 10:56:04 51°36.379 2°42.193 24.1 10.9 24 38.3
2009-06-23 10:57:04 51°36.543 2°42.318 23.4 11 24 38.8
2009-06-23 10:58:03 51°36.71 2°42.429 21.6 11 21 38
2009-06-23 10:59:04 51°36.884 2°42.539 20.8 11 20 38.2
2009-06-23 11:00:04 51°37.051 2°42.641 21.3 11 23 38.1
2009-06-23 11:01:04 51°37.223 2°42.749 21.3 11.1 22 37.9
2009-06-23 11:02:04 51°37.397 2°42.858 20.6 11.2 21 36.6
2009-06-23 11:03:04 51°37.569 2°42.965 20.5 11.2 21 37.8
2009-06-23 11:04:04 51°37.741 2°43.077 22.1 11.2 21 37.5
2009-06-23 11:05:04 51°37.915 2°43.195 22.6 11.4 23 36.9
2009-06-23 11:06:04 51°38.09 2°43.305 20.5 11.4 19 37.4
2009-06-23 11:07:04 51°38.265 2°43.419 21.2 11.4 21 37.9
2009-06-23 11:08:04 51°38.442 2°43.531 21.5 11.5 22 39.8
2009-06-23 11:09:04 51°38.619 2°43.64 20.2 11.3 21 39.1
2009-06-23 11:10:04 51°38.796 2°43.754 21.9 11.5 23 38.4
2009-06-23 11:11:04 51°38.973 2°43.873 21.8 11.5 23 36.3
2009-06-23 11:12:04 51°39.148 2°43.988 21.3 11.4 21 40.1
2009-06-23 11:13:04 51°39.325 2°44.097 20.5 11.4 22 37.9
2009-06-23 11:14:03 51°39.499 2°44.208 19.6 11.4 18 37.7
2009-06-23 11:15:04 51°39.684 2°44.304 16.8 11.5 17 38.6
2009-06-23 11:16:04 51°39.866 2°44.399 17.9 11.5 20 41.5
2009-06-23 11:17:04 51°40.048 2°44.495 18.1 11.6 18 38.1
2009-06-23 11:18:04 51°40.232 2°44.587 17.6 11.6 18 39
2009-06-23 11:19:04 51°40.415 2°44.678 16.8 11.5 18 37.4
2009-06-23 11:20:04 51°40.599 2°44.764 16.5 11.6 17 39.2
2009-06-23 11:21:04 51°40.783 2°44.857 17.4 11.6 17 40
2009-06-23 11:22:04 51°40.968 2°44.946 17.4 11.6 17 37.8
2009-06-23 11:23:03 51°41.151 2°45.03 16.4 11.6 16 38.9
2009-06-23 11:24:04 51°41.338 2°45.119 18.3 11.5 17 38.2
2009-06-23 11:25:04 51°41.523 2°45.203 14.3 11.5 15 39.3
2009-06-23 11:26:04 51°41.711 2°45.261 11.7 11.5 10 41
2009-06-23 11:27:04 51°41.9 2°45.304 4.9 11.3 3 37.3
2009-06-23 11:28:04 51°42.089 2°45.291 356.8 11.4 355 41.5
2009-06-23 11:29:04 51°42.274 2°45.225 340.5 11.3 339 39
2009-06-23 11:30:04 51°42.418 2°45.043 312.8 11.1 305 38.9
2009-06-23 11:31:04 51°42.497 2°44.773 294.2 11.3 292 37.1
2009-06-23 11:32:04 51°42.56 2°44.489 292.5 11.2 290 37.7
2009-06-23 11:33:04 51°42.579 2°44.199 261.5 11 255 39.7
2009-06-23 11:34:04 51°42.492 2°43.939 235.6 11.3 233 36.4
2009-06-23 11:35:04 51°42.349 2°43.733 222.1 11.5 218 34.9
2009-06-23 11:36:04 51°42.196 2°43.547 220.7 11.6 218 35.2
2009-06-23 11:37:04 51°42.035 2°43.382 210.6 11.5 205 37.8
2009-06-23 11:38:04 51°41.857 2°43.262 206.2 11.6 202 34.4
2009-06-23 11:39:04 51°41.679 2°43.139 208.4 11.7 204 35.2
2009-06-23 11:40:04 51°41.502 2°43.015 208 11.5 204 32.9
2009-06-23 11:41:04 51°41.328 2°42.888 208.8 11.5 204 35.4
2009-06-23 11:42:04 51°41.155 2°42.758 209.3 11.5 205 36.4
2009-06-23 11:43:04 51°40.983 2°42.631 209.8 11.3 204 34.8
2009-06-23 11:44:04 51°40.813 2°42.504 208.7 11.2 204 35.6
2009-06-23 11:45:04 51°40.641 2°42.383 208.8 11.3 204 34.6
2009-06-23 11:46:04 51°40.471 2°42.261 208.3 11.2 203 35.8
2009-06-23 11:47:04 51°40.301 2°42.139 209.7 11.1 204 32.3
2009-06-23 11:48:04 51°40.133 2°42.017 208.4 11 202 33.3
2009-06-23 11:49:04 51°39.965 2°41.895 210.2 11 204 31.7
2009-06-23 11:50:04 51°39.798 2°41.771 209 11.1 206 28.4
2009-06-23 11:51:04 51°39.634 2°41.655 208.4 10.9 203 31
2009-06-23 11:52:04 51°39.469 2°41.537 210.5 10.8 208 29.5
2009-06-23 11:53:04 51°39.303 2°41.426 208.5 10.6 201 23.5
2009-06-23 11:54:04 51°39.138 2°41.321 208.2 10.6 198 20.2
2009-06-23 11:55:04 51°38.972 2°41.224 204.6 10.8 198 26.8
2009-06-23 11:56:04 51°38.802 2°41.128 203.9 10.9 199 27.5
2009-06-23 11:57:04 51°38.632 2°41.028 204.7 11 201 29.8
2009-06-23 11:58:04 51°38.459 2°40.938 201.8 11 196 27
2009-06-23 11:59:04 51°38.288 2°40.856 203.4 10.7 197 27
2009-06-23 12:00:04 51°38.115 2°40.774 201.9 10.9 195 24.6
2009-06-23 12:01:04 51°37.942 2°40.694 201.6 10.7 197 26
2009-06-23 12:02:04 51°37.769 2°40.617 201.4 10.7 197 24.7
2009-06-23 12:03:04 51°37.598 2°40.534 201.7 10.7 199 26.7
2009-06-23 12:04:04 51°37.426 2°40.45 202.5 10.8 197 26.8
2009-06-23 12:05:04 51°37.256 2°40.363 203 10.8 198 27.6
2009-06-23 12:06:04 51°37.086 2°40.273 203.3 10.8 199 28.9
2009-06-23 12:07:04 51°36.916 2°40.177 204 10.8 200 29.2
2009-06-23 12:08:04 51°36.746 2°40.08 203.1 11 200 30.2
2009-06-23 12:09:04 51°36.575 2°39.986 201.4 10.8 200 29.8
2009-06-23 12:10:04 51°36.405 2°39.892 202.2 10.7 199 30.3
2009-06-23 12:11:04 51°36.237 2°39.793 203.3 10.7 201 31
2009-06-23 12:12:04 51°36.068 2°39.697 201.9 10.7 200 32
2009-06-23 12:13:04 51°35.901 2°39.598 202.3 10.7 200 32.8
2009-06-23 12:14:04 51°35.734 2°39.5 200.8 10.6 200 33.5
2009-06-23 12:15:04 51°35.568 2°39.406 202 10.6 201 33.3
2009-06-23 12:16:04 51°35.403 2°39.307 203.3 10.5 200 34.2
2009-06-23 12:17:04 51°35.241 2°39.206 201.7 10.5 198 34.1
2009-06-23 12:18:04 51°35.076 2°39.117 200.1 10.5 199 34.3
2009-06-23 12:19:04 51°34.91 2°39.035 198.9 10.5 197 35
2009-06-23 12:20:04 51°34.743 2°38.957 198.9 10.4 200 35.1
2009-06-23 12:21:04 51°34.576 2°38.879 199.1 10.5 196 34.4
2009-06-23 12:22:04 51°34.409 2°38.801 198.5 10.5 196 33.8
2009-06-23 12:23:04 51°34.241 2°38.73 197.4 10.4 193 34.5
2009-06-23 12:24:04 51°34.075 2°38.653 198.1 10.4 199 33.4
2009-06-23 12:25:04 51°33.908 2°38.58 197.1 10.3 195 31.9
2009-06-23 12:26:04 51°33.741 2°38.506 198.2 10.5 196 31.2
2009-06-23 12:27:04 51°33.574 2°38.431 197.8 10.5 196 30.5
2009-06-23 12:28:04 51°33.406 2°38.358 198 10.5 196 29.6
2009-06-23 12:29:04 51°33.239 2°38.284 198.2 10.4 195 28.3
2009-06-23 12:30:04 51°33.071 2°38.21 198.8 10.4 195 26.7
2009-06-23 12:31:04 51°32.902 2°38.136 197.5 10.5 194 25.6
2009-06-23 12:32:04 51°32.735 2°38.064 198.3 10.5 197 24.8
2009-06-23 12:33:04 51°32.566 2°37.995 197.1 10.5 193 23.8
2009-06-23 12:34:04 51°32.397 2°37.926 198.2 10.6 193 22.2
2009-06-23 12:35:04 51°32.229 2°37.86 197.8 10.4 195 21.3
2009-06-23 12:36:04 51°32.061 2°37.793 199.1 10.5 195 20.8
2009-06-23 12:37:04 51°31.892 2°37.726 198.1 10.3 194 20.7
2009-06-23 12:38:04 51°31.725 2°37.658 199.1 10.4 195 20.2
2009-06-23 12:39:04 51°31.557 2°37.59 198.4 10.5 193 20.9
2009-06-23 12:40:04 51°31.388 2°37.529 198.4 10.3 194 21.4
2009-06-23 12:41:04 51°31.221 2°37.46 199.7 10.3 195 21.7
2009-06-23 12:42:04 51°31.054 2°37.394 197.7 10.4 195 22.3
2009-06-23 12:43:04 51°30.886 2°37.329 198.7 10.2 195 21
2009-06-23 12:44:04 51°30.712 2°37.304 188.9 10.6 181 24
2009-06-23 12:45:04 51°30.537 2°37.291 188.1 10.5 184 25.1
2009-06-23 12:46:04 51°30.361 2°37.281 188.3 10.6 182 25.2
2009-06-23 12:47:04 51°30.185 2°37.273 187.6 10.6 180 25.2
2009-06-23 12:48:04 51°30.007 2°37.263 189.6 10.5 182 26.4
2009-06-23 12:49:04 51°29.83 2°37.254 188.8 10.6 182 23.6
2009-06-23 12:50:04 51°29.655 2°37.242 190.1 10.6 185 27.5
2009-06-23 12:51:04 51°29.479 2°37.228 188.5 10.4 183 32.2
2009-06-23 12:52:04 51°29.305 2°37.213 188.2 10.5 180 35.2
2009-06-23 12:53:04 51°29.128 2°37.235 180.3 10.7 173 37.6
2009-06-23 12:54:04 51°28.952 2°37.266 181.3 10.7 175 37.8
2009-06-23 12:55:04 51°28.775 2°37.292 180.4 10.6 176 38.2
2009-06-23 12:56:04 51°28.599 2°37.319 180.8 10.7 174 39.6
2009-06-23 12:57:04 51°28.428 2°37.389 166.2 10.8 156 38.6
2009-06-23 12:58:04 51°28.276 2°37.558 149.6 11.3 144 38.7
2009-06-23 12:59:04 51°28.126 2°37.747 149.5 11.5 143 40.9
2009-06-23 13:00:04 51°27.975 2°37.934 150.5 11.4 141 38.8
2009-06-23 13:01:04 51°27.826 2°38.116 151.8 11.3 142 34.3
2009-06-23 13:02:04 51°27.676 2°38.298 151 11.3 143 35.2
2009-06-23 13:03:04 51°27.539 2°38.507 135.8 11.7 126 35.5
2009-06-23 13:04:04 51°27.433 2°38.776 129.4 12.1 121 35.4
2009-06-23 13:05:04 51°27.328 2°39.048 130.6 12 123 36.8
2009-06-23 13:06:04 51°27.218 2°39.313 130.7 11.9 123 35.6
2009-06-23 13:07:04 51°27.117 2°39.587 124.1 12 118 34.9
2009-06-23 13:08:04 51°27.033 2°39.875 123.6 11.7 114 36.5
2009-06-23 13:09:04 51°26.95 2°40.158 122.6 11.7 116 34.6
2009-06-23 13:10:04 51°26.855 2°40.43 130.5 11.7 121 33.3
2009-06-23 13:11:04 51°26.75 2°40.691 129.1 11.7 122 32.9
2009-06-23 13:12:04 51°26.652 2°40.961 127.4 11.7 119 33.8
2009-06-23 13:13:04 51°26.557 2°41.235 126.2 11.6 118 32.1
2009-06-23 13:14:04 51°26.454 2°41.496 133.2 11.5 126 31.3
2009-06-23 13:15:04 51°26.331 2°41.729 145.2 11.3 135 31.4
2009-06-23 13:16:04 51°26.188 2°41.919 148.9 11.2 142 31.3
2009-06-23 13:17:04 51°26.034 2°42.087 154.1 11.1 147 29.2
2009-06-23 13:18:04 51°25.88 2°42.25 154 11.1 149 30
2009-06-23 13:19:04 51°25.726 2°42.416 152.9 11.2 142 28.7
2009-06-23 13:20:04 51°25.574 2°42.585 152.8 11.1 146 25.8
2009-06-23 13:21:04 51°25.418 2°42.739 156.9 10.9 149 26.2
2009-06-23 13:22:04 51°25.262 2°42.889 157.7 10.8 151 26.5
2009-06-23 13:23:04 51°25.109 2°43.043 155.1 10.8 146 25.5
2009-06-23 13:24:04 51°24.958 2°43.203 156.7 11 148 25.5
2009-06-23 13:25:04 51°24.805 2°43.362 157.4 11 148 25.3
2009-06-23 13:26:04 51°24.65 2°43.52 156.8 10.9 147 23.7
2009-06-23 13:27:04 51°24.496 2°43.681 155.3 11 146 23
2009-06-23 13:28:04 51°24.34 2°43.84 155 11.1 147 24.9
2009-06-23 13:29:04 51°24.184 2°44.002 157 11.2 148 27.8
2009-06-23 13:30:04 51°24.027 2°44.162 157 11.1 147 27.7
2009-06-23 13:31:04 51°23.87 2°44.325 155.5 11.2 149 29.2
2009-06-23 13:32:04 51°23.711 2°44.487 156.4 11.3 150 29
2009-06-23 13:33:04 51°23.551 2°44.65 154.7 11.4 146 29.8
2009-06-23 13:34:04 51°23.39 2°44.806 156.1 11.5 147 27.7
2009-06-23 13:35:04 51°23.23 2°44.969 156.1 11.3 148 28.3
2009-06-23 13:36:04 51°23.071 2°45.132 157.1 11.4 149 29.4
2009-06-23 13:37:04 51°22.912 2°45.293 155.5 11 147 28.6
2009-06-23 13:38:04 51°22.76 2°45.45 156.1 10.7 148 23.6
2009-06-23 13:39:04 51°22.608 2°45.604 156.5 10.7 149 24.6
2009-06-23 13:40:04 51°22.457 2°45.759 156.7 10.8 149 24.9
2009-06-23 13:41:04 51°22.304 2°45.917 156.1 11.1 145 23.8
2009-06-23 13:42:04 51°22.149 2°46.077 155.3 11.1 148 22.9
2009-06-23 13:43:04 51°21.994 2°46.238 156.1 11.2 147 23.8
2009-06-23 13:44:04 51°21.837 2°46.396 157.6 11.3 149 25.7
2009-06-23 13:45:04 51°21.682 2°46.555 156.5 11.2 145 27.1
2009-06-23 13:46:04 51°21.525 2°46.716 156.1 11.2 148 26.7
2009-06-23 13:47:04 51°21.369 2°46.88 155.3 11.2 147 26.2
2009-06-23 13:48:04 51°21.216 2°47.057 152.2 11.5 142 25.8
2009-06-23 13:49:04 51°21.062 2°47.241 151.6 11.5 143 24.3
2009-06-23 13:50:04 51°20.907 2°47.422 151.1 11.6 144 21.8
2009-06-23 13:51:04 51°20.75 2°47.604 152.9 11.7 147 19.9
2009-06-23 13:52:04 51°20.597 2°47.795 149 11.9 140 21.1
2009-06-23 13:53:04 51°20.447 2°47.995 146.8 11.7 141 23.2
2009-06-23 13:54:04 51°20.297 2°48.198 146.9 11.7 142 24.3
2009-06-23 13:55:04 51°20.153 2°48.412 143.3 11.8 136 24.7
2009-06-23 13:56:04 51°20.012 2°48.63 142.9 11.8 136 24.4
2009-06-23 13:57:04 51°19.871 2°48.836 145.6 11.5 139 22.8
2009-06-23 13:58:04 51°19.728 2°49.035 145.8 11.1 140 20.8
2009-06-23 13:59:04 51°19.581 2°49.228 146.9 11.6 141 18.3
2009-06-23 14:00:04 51°19.433 2°49.426 145.9 11.6 138 16.8
2009-06-23 14:01:04 51°19.286 2°49.626 144.9 11.5 142 14.5
2009-06-23 14:02:04 51°19.136 2°49.822 146.3 11.6 138 13.1
2009-06-23 14:03:04 51°18.984 2°50.01 147.4 11.6 140 14.2
2009-06-23 14:04:04 51°18.834 2°50.201 146.2 11.5 142 15.6
2009-06-23 14:05:04 51°18.683 2°50.392 146.4 11.5 142 16.5
2009-06-23 14:06:04 51°18.534 2°50.58 147.2 11.3 141 16.5
2009-06-23 14:07:04 51°18.387 2°50.767 146 11.5 142 15.9
2009-06-23 14:08:04 51°18.239 2°50.956 145.5 11.4 140 15
2009-06-23 14:09:04 51°18.091 2°51.142 146.5 11.3 143 14.3
2009-06-23 14:10:04 51°17.943 2°51.33 146.4 11.3 143 13
2009-06-23 14:11:04 51°17.797 2°51.517 145.8 11.3 141 12.3
2009-06-23 14:12:04 51°17.65 2°51.701 146.7 11.2 143 11.8
2009-06-23 14:13:04 51°17.503 2°51.886 146.7 11.3 141 12.5
2009-06-23 14:14:04 51°17.356 2°52.075 144.1 11.3 140 12.8
2009-06-23 14:15:04 51°17.208 2°52.259 146 11.2 145 12.8
2009-06-23 14:16:04 51°17.058 2°52.441 147.4 11.4 141 12
2009-06-23 14:17:04 51°16.904 2°52.617 149.4 11.4 147 12
2009-06-23 14:18:04 51°16.753 2°52.795 148.8 11.3 145 12.1
2009-06-23 14:19:04 51°16.598 2°52.973 148.2 11.4 144 13.6
2009-06-23 14:20:04 51°16.446 2°53.154 149.6 11.3 148 14
2009-06-23 14:21:04 51°16.287 2°53.317 153.4 11.4 147 13.9
2009-06-23 14:22:04 51°16.126 2°53.474 152.3 11.4 150 13.7
2009-06-23 14:23:04 51°15.966 2°53.634 151.6 11.3 148 13.7
2009-06-23 14:24:04 51°15.804 2°53.791 154.5 11.4 150 13.4
2009-06-23 14:25:04 51°15.636 2°53.93 157.8 11.4 153 12.4
2009-06-23 14:26:04 51°15.475 2°54.083 145.9 11.2 142 12.2
2009-06-23 14:27:04 51°15.318 2°54.246 156 11 157 11.3
2009-06-23 14:28:04 51°15.143 2°54.329 172.5 11 169 12.4
2009-06-23 14:29:04 51°14.962 2°54.387 171.8 11.1 167 10.5
2009-06-23 14:30:04 51°14.787 2°54.473 158.4 11.2 154 12
2009-06-23 14:31:04 51°14.634 2°54.645 141 11.3 136 11.6
2009-06-23 14:32:04 51°14.493 2°54.847 143.3 11.5 140 12.4
2009-06-23 14:33:04 51°14.355 2°55.053 131.1 11.1 127 12.2
2009-06-23 14:34:04 51°14.243 2°55.265 131.9 9.6 135 12.4
2009-06-23 14:35:04 51°14.127 2°55.407 153.7 8.5 154 12.3
2009-06-23 14:36:04 51°14.007 2°55.494 156.1 7.7 156 12.2
2009-06-23 14:37:04 51°13.901 2°55.57 156.1 6.7 156 12.3
2009-06-23 14:38:04 51°13.802 2°55.646 150.9 6.5 149 12.5
2009-06-23 14:39:04 51°13.73 2°55.757 129.3 5.2 129 13.2
2009-06-23 14:40:04 51°13.689 2°55.85 123.8 3.7 121 10.1